メインページ
METAR-TAF:

METAR-TAF

空港 :

ドバイ国際空港

ドバイ, アラブ首長国連邦

緯度: 25-15-10N, 経度: 055-21-52E, 海抜: 8m

現時点の気象観測

当レポートは1時間12分前の01:00(UTC)に作成
北東の風 6kt、北/北東から東/南東の間で変化する
気温 22°C
湿度 60%
気圧 1019 hPa
視程10km以上
1,500メートル以下は雲なし、積乱雲なし

METAR: OMDB 150100Z 05006KT 020V110 CAVOK 22/14 Q1019 NOSIG

時間: 06:12 (02:12 UTC)

予報

当レポートは3時間13分前の22:59(UTC)に作成
予報は15日の 00時(UTC)から 16日の 06時(UTC)まで有効
東/北東の風 5kt
視程: 8000m
高度3500ftの雲はほとんどない
15日の 09時(UTC)から 15日の 11時(UTC)まで徐々に
の風 10kt
確率 30% :
15日の 09時(UTC)から 15日の 15時(UTC)まで一時的に
変向風 15kt、最大30ktの突風を伴う
視程: 3000m
高度3500ftの雲はほとんどない, 塔状積雲.
風塵
15日の 15時(UTC)から 15日の 17時(UTC)まで徐々に
東/北東の風 5kt

TAF: OMDB 142259Z 1500/1606 06005KT 8000 FEW035 BECMG 1509/1511 35010KT PROB30 TEMPO 1509/1515 VRB15G30KT 3000 BLDU FEW035TCU BECMG 1515/1517 06005KT

4,000以上の空港の気象観測と天気予報(METAR報とTAF報)

利用可能な観測所は地図上に黄色い丸と赤い丸で示す。

丸の上にカーソルを重ねると観測所名を参照できる。

次にクリックすると気象観測と天気予報を参照できる。

マップの切り替え:黒色「×」印の緑ボタンをクリックして拡大、「-」印の緑ボタンをクリックして縮小、緑色の三角印をクリックして隣りの地図に切り替え


METAR-TAF: